Time;durP1;ratioP1;P1;durP2;ratioP2;P2;SDS_P1;SDS_P2;PMS_P1;PMS_P2;Temp;Humidity;BMP_temperature;BMP_pressure;BME280_temperature;BME280_humidity;BME280_pressure;Samples;Min_cycle;Max_cycle;Signal;HPM_P1;HPM_P2
2024/04/12 00:00:57;;;;;;;11.47;5.20;;;;;;;-145.69;65.81;52145.34;5524503;26;20701;-77
2024/04/12 00:03:26;;;;;;;7.20;4.60;;;;;;;-145.69;65.78;52159.22;5524653;26;20707;-78
2024/04/12 00:05:53;;;;;;;11.70;5.33;;;;;;;-145.69;66.39;52145.34;5524316;26;20241;-77
2024/04/12 00:08:23;;;;;;;10.73;5.90;;;;;;;-145.69;66.18;52190.91;5523924;26;20765;-77
2024/04/12 00:10:52;;;;;;;13.97;6.13;;;;;;;-145.69;66.41;52131.50;5523855;26;20221;-77
2024/04/12 00:13:20;;;;;;;15.00;5.60;;;;;;;-145.69;66.59;52173.09;5487683;26;20235;-78
2024/04/12 00:15:47;;;;;;;9.20;5.20;;;;;;;-145.69;66.48;52121.59;5496118;26;20346;-77
2024/04/12 00:18:15;;;;;;;9.20;5.63;;;;;;;-145.69;67.00;52155.25;5524280;26;20226;-77
2024/04/12 00:20:41;;;;;;;11.03;5.93;;;;;;;-145.69;66.95;52151.28;5524273;26;20724;-77
2024/04/12 00:23:12;;;;;;;9.03;5.03;;;;;;;-145.69;66.18;52155.25;5523744;26;20264;-77
2024/04/12 00:25:39;;;;;;;11.10;5.60;;;;;;;-145.69;66.42;52165.16;5523418;26;20275;-75
2024/04/12 00:28:10;;;;;;;10.23;5.60;;;;;;;-145.69;67.09;52137.44;5523592;26;20267;-77
2024/04/12 00:30:38;;;;;;;12.97;7.00;;;;;;;-145.69;67.83;52157.25;5524285;26;20226;-77
2024/04/12 00:33:09;;;;;;;15.75;7.25;;;;;;;-145.69;67.75;52171.09;5523348;26;20352;-77
2024/04/12 00:35:36;;;;;;;18.70;6.90;;;;;;;-145.69;68.28;52143.38;5523743;26;20743;-76
2024/04/12 00:38:09;;;;;;;10.70;6.63;;;;;;;-145.69;68.27;52139.41;5523774;26;20246;-77
2024/04/12 00:40:35;;;;;;;14.97;7.53;;;;;;;-145.69;68.32;52147.34;5524019;26;20256;-75
2024/04/12 00:43:12;;;;;;;13.23;6.13;;;;;;;-145.69;67.38;52155.25;5523562;26;20302;-77
2024/04/12 00:45:45;;;;;;;11.27;6.13;;;;;;;-145.69;67.78;52167.13;5508582;25;20245;-77
2024/04/12 00:48:15;;;;;;;13.60;7.00;;;;;;;-145.69;68.29;52153.28;5490711;26;20269;-77
2024/04/12 00:50:43;;;;;;;14.03;6.43;;;;;;;-145.69;68.32;52159.22;5490760;26;20222;-77
2024/04/12 00:53:13;;;;;;;12.67;6.33;;;;;;;-145.69;68.03;52167.13;5506747;26;20314;-79
2024/04/12 00:55:39;;;;;;;14.63;7.43;;;;;;;-145.69;68.56;52163.19;5527292;26;20252;-78
2024/04/12 00:58:11;;;;;;;13.23;7.17;;;;;;;-145.69;68.52;52163.19;5527305;26;20225;-78
2024/04/12 01:00:37;;;;;;;15.83;7.80;;;;;;;-145.69;68.97;52171.09;5527561;26;20266;-77
2024/04/12 01:03:06;;;;;;;14.93;7.13;;;;;;;-145.69;68.68;52153.28;5527371;26;20611;-78
2024/04/12 01:05:32;;;;;;;16.70;6.23;;;;;;;-145.69;68.77;52165.16;5525373;26;20268;-78
2024/04/12 01:08:01;;;;;;;11.70;7.20;;;;;;;-145.69;68.87;52111.69;5527041;26;20221;-78
2024/04/12 01:10:30;;;;;;;13.03;7.07;;;;;;;-145.69;68.47;52145.34;5527195;26;20720;-78
2024/04/12 01:13:02;;;;;;;15.00;7.37;;;;;;;-145.69;68.71;52161.19;5527088;26;20264;-78
2024/04/12 01:15:32;;;;;;;13.87;7.23;;;;;;;-145.69;68.61;52131.50;5526364;26;20317;-78
2024/04/12 01:18:01;;;;;;;13.23;6.43;;;;;;;-145.69;68.45;52119.63;5526985;26;20353;-78
2024/04/12 01:20:27;;;;;;;13.80;7.17;;;;;;;-145.69;68.69;52155.25;5526396;26;20226;-78
2024/04/12 01:22:58;;;;;;;11.63;6.90;;;;;;;-145.69;68.79;52123.56;5526987;26;20585;-78
2024/04/12 01:25:28;;;;;;;13.93;6.40;;;;;;;-145.69;68.38;52171.09;5527094;26;20713;-77
2024/04/12 01:27:57;;;;;;;14.47;7.80;;;;;;;-145.69;68.48;52167.13;5527483;26;20728;-77
2024/04/12 01:30:24;;;;;;;14.97;6.83;;;;;;;-145.69;68.62;52167.13;5526955;26;20720;-77
2024/04/12 01:32:52;;;;;;;12.23;7.07;;;;;;;-145.69;69.04;52175.06;5526464;26;20233;-77
2024/04/12 01:35:21;;;;;;;14.27;6.80;;;;;;;-145.69;68.97;52139.41;5526895;26;20226;-78
2024/04/12 01:37:51;;;;;;;15.10;7.37;;;;;;;-145.69;69.09;52161.19;5526868;26;20226;-78
2024/04/12 01:40:17;;;;;;;15.53;7.13;;;;;;;-145.69;68.80;52153.28;5525538;26;20225;-77
2024/04/12 01:42:48;;;;;;;12.80;6.93;;;;;;;-145.69;69.16;52163.19;5526565;26;20229;-77
2024/04/12 01:45:14;;;;;;;17.77;7.47;;;;;;;-145.69;69.64;52139.41;5526767;26;20268;-77
2024/04/12 01:47:43;;;;;;;20.03;8.07;;;;;;;-145.69;69.76;52177.03;5526561;26;20225;-78
2024/04/12 01:50:12;;;;;;;15.63;7.73;;;;;;;-145.69;69.27;52137.44;5526640;26;20229;-77
2024/04/12 01:52:53;;;;;;;18.67;7.57;;;;;;;-145.69;69.57;52167.13;5526839;26;20321;-76
2024/04/12 01:55:20;;;;;;;16.10;7.87;;;;;;;-145.69;70.03;52161.19;5525861;26;20831;-77
2024/04/12 01:57:55;;;;;;;15.10;6.60;;;;;;;-145.69;69.58;52145.34;5526005;26;20593;-78
2024/04/12 02:00:23;;;;;;;18.83;8.00;;;;;;;-145.69;69.54;52171.09;5526612;26;20217;-77
2024/04/12 02:02:52;;;;;;;13.73;7.60;;;;;;;-145.69;69.75;52163.19;5526569;26;20693;-77
2024/04/12 02:05:20;;;;;;;14.00;7.13;;;;;;;-145.69;69.79;52133.47;5526595;26;20724;-77
2024/04/12 02:07:48;;;;;;;17.13;8.20;;;;;;;-145.69;69.55;52151.28;5525672;26;20222;-77
2024/04/12 02:10:14;;;;;;;15.23;8.03;;;;;;;-145.69;69.81;52139.41;5526162;26;20230;-77
2024/04/12 02:12:46;;;;;;;15.03;7.17;;;;;;;-145.69;69.33;52181.00;5524769;26;20295;-77
2024/04/12 02:15:19;;;;;;;16.30;8.37;;;;;;;-145.69;70.04;52151.28;5526606;26;20626;-77
2024/04/12 02:17:53;;;;;;;18.13;8.13;;;;;;;-145.69;70.06;52153.28;5526039;26;20234;-77
2024/04/12 02:20:19;;;;;;;20.43;8.27;;;;;;;-145.69;70.41;52151.28;5526307;26;20260;-77
2024/04/12 02:22:49;;;;;;;14.93;7.80;;;;;;;-145.69;69.71;52127.53;5526390;26;20225;-78
2024/04/12 02:25:17;;;;;;;17.43;8.00;;;;;;;-145.69;69.96;52190.91;5526341;26;20609;-77
2024/04/12 02:27:46;;;;;;;16.40;8.07;;;;;;;-145.69;69.33;52137.44;5526042;26;20276;-77
2024/04/12 02:30:17;;;;;;;17.10;8.53;;;;;;;-145.69;69.83;52153.28;5525706;26;20265;-77
2024/04/12 02:32:47;;;;;;;18.40;8.23;;;;;;;-145.69;69.69;52155.25;5525986;26;20256;-77
2024/04/12 02:35:14;;;;;;;14.13;8.00;;;;;;;-145.69;70.36;52143.38;5525960;26;20221;-77
2024/04/12 02:37:42;;;;;;;14.30;7.77;;;;;;;-145.69;69.73;52198.81;5525915;26;20779;-78
2024/04/12 02:40:15;;;;;;;17.93;8.30;;;;;;;-145.69;70.61;52202.78;5525771;26;20329;-77
2024/04/12 02:42:43;;;;;;;18.77;8.07;;;;;;;-145.69;70.97;52157.25;5526158;26;20233;-77
2024/04/12 02:45:12;;;;;;;15.13;7.83;;;;;;;-145.69;70.19;52127.53;5525922;26;20229;-77
2024/04/12 02:47:44;;;;;;;16.37;7.73;;;;;;;-145.69;70.38;52153.28;5525731;26;20225;-78
2024/04/12 02:50:10;;;;;;;14.60;7.87;;;;;;;-145.69;70.65;52159.22;5525779;26;20257;-77
2024/04/12 02:52:40;;;;;;;16.53;7.87;;;;;;;-145.69;70.85;52167.13;5515121;26;20340;-76
2024/04/12 02:55:12;;;;;;;15.30;7.60;;;;;;;-145.69;70.26;52141.41;5525870;26;20238;-76
2024/04/12 02:57:41;;;;;;;14.83;8.03;;;;;;;-145.69;70.13;52139.41;5525808;26;20225;-77
2024/04/12 03:00:21;;;;;;;19.80;7.07;;;;;;;-145.69;70.38;52149.31;5525768;26;20221;-77
2024/04/12 03:02:53;;;;;;;18.10;8.67;;;;;;;-145.69;72.28;52198.81;5525272;26;20281;-77
2024/04/12 03:05:19;;;;;;;19.90;8.50;;;;;;;-145.69;71.14;52127.53;5525284;26;20743;-77
2024/04/12 03:07:48;;;;;;;17.93;8.77;;;;;;;-145.69;70.84;52171.09;5523733;26;20776;-78
2024/04/12 03:10:18;;;;;;;13.97;7.63;;;;;;;-145.69;70.40;52175.06;5525560;26;20546;-77
2024/04/12 03:12:51;;;;;;;17.33;8.33;;;;;;;-145.69;70.72;52133.47;5525478;26;20218;-77
2024/04/12 03:15:18;;;;;;;16.87;8.47;;;;;;;-145.69;71.17;52184.97;5525841;26;20259;-77
2024/04/12 03:17:47;;;;;;;14.87;7.73;;;;;;;-145.69;71.05;52149.31;5525411;26;20721;-76
2024/04/12 03:20:16;;;;;;;16.23;7.90;;;;;;;-145.69;71.75;52163.19;5525484;26;20321;-76
2024/04/12 03:22:44;;;;;;;13.93;7.47;;;;;;;-145.69;71.45;52181.00;5524831;26;20707;-77
2024/04/12 03:25:10;;;;;;;15.60;7.40;;;;;;;-145.69;70.51;52194.88;5525656;26;20333;-76
2024/04/12 03:27:38;;;;;;;11.67;6.97;;;;;;;-145.69;70.27;52190.91;5525168;26;20221;-77
2024/04/12 03:30:13;;;;;;;20.77;7.47;;;;;;;-145.69;70.58;52165.16;5525655;26;20265;-78
2024/04/12 03:32:44;;;;;;;14.70;7.43;;;;;;;-145.69;70.67;52175.06;5525092;26;20220;-77
2024/04/12 03:35:11;;;;;;;20.57;8.30;;;;;;;-145.69;71.71;52196.84;5525034;26;20237;-77
2024/04/12 03:38:24;;;;;;;18.17;7.67;;;;;;;-145.69;71.25;52163.19;5524740;26;20280;-77
2024/04/12 03:40:28;;;;;;;18.27;8.40;;;;;;;-145.69;71.67;52151.28;5524324;26;20217;-77
2024/04/12 03:43:02;;;;;;;16.67;7.50;;;;;;;-145.69;71.29;52151.28;5524833;26;20321;-77
2024/04/12 03:45:30;;;;;;;18.50;7.90;;;;;;;-145.69;71.38;52169.13;5524865;26;20276;-77
2024/04/12 03:48:04;;;;;;;16.97;7.97;;;;;;;-145.69;71.96;52167.13;5524610;26;20818;-77
2024/04/12 03:50:32;;;;;;;17.03;8.07;;;;;;;-145.69;71.95;52188.91;5524891;26;20260;-77
2024/04/12 03:53:14;;;;;;;19.87;9.30;;;;;;;-145.69;71.72;52149.31;5524945;26;20233;-77
2024/04/12 03:55:45;;;;;;;25.43;8.73;;;;;;;-145.69;72.35;52167.13;5524725;26;20229;-77
2024/04/12 03:58:17;;;;;;;23.67;9.60;;;;;;;-145.69;72.84;52151.28;5524393;26;20656;-76
2024/04/12 04:00:47;;;;;;;20.07;8.70;;;;;;;-145.69;72.10;52159.22;5525051;26;20225;-76
2024/04/12 04:03:30;;;;;;;23.10;8.07;;;;;;;-145.69;71.88;52181.00;5524555;26;20241;-76
2024/04/12 04:06:05;;;;;;;16.87;7.67;;;;;;;-145.69;71.37;52186.94;5523894;26;20225;-77
2024/04/12 04:08:47;;;;;;;14.43;7.67;;;;;;;-145.69;70.42;52198.81;5523587;26;20237;-77
2024/04/12 04:11:17;;;;;;;16.23;7.83;;;;;;;-145.69;70.91;52151.28;5524191;26;20320;-77
2024/04/12 04:13:44;;;;;;;15.43;6.87;;;;;;;-145.69;71.13;52181.00;5524205;26;20264;-77
2024/04/12 04:16:16;;;;;;;16.43;8.20;;;;;;;-145.69;71.31;52143.38;5523532;26;20233;-77
2024/04/12 04:18:42;;;;;;;15.17;7.73;;;;;;;-145.69;71.32;52206.75;5487615;26;20286;-76
2024/04/12 04:21:10;;;;;;;20.40;8.10;;;;;;;-145.69;72.44;52177.03;5524818;26;20346;-77
2024/04/12 04:23:42;;;;;;;16.80;8.67;;;;;;;-145.69;72.08;52163.19;5527735;26;20229;-76
2024/04/12 04:26:10;;;;;;;23.27;9.33;;;;;;;-145.69;72.04;52181.00;5528109;26;20217;-76
2024/04/12 04:28:36;;;;;;;23.17;9.67;;;;;;;-145.69;71.78;52194.88;5528341;26;20217;-77
2024/04/12 04:31:08;;;;;;;17.80;8.30;;;;;;;-145.69;72.10;52165.16;5527797;26;20225;-77
2024/04/12 04:33:34;;;;;;;18.50;9.97;;;;;;;-145.69;72.41;52188.91;5527561;26;20260;-77
2024/04/12 04:36:08;;;;;;;20.30;9.53;;;;;;;-145.69;72.10;52196.84;5527479;26;20279;-76
2024/04/12 04:38:36;;;;;;;18.00;9.63;;;;;;;-145.69;72.46;52188.91;5527242;26;20747;-76
2024/04/12 04:41:07;;;;;;;19.83;9.47;;;;;;;-145.69;72.09;52171.09;5527252;26;20297;-76
2024/04/12 04:43:33;;;;;;;18.47;9.77;;;;;;;-145.69;72.68;52165.16;5527837;26;20221;-78
2024/04/12 04:46:15;;;;;;;21.93;9.33;;;;;;;-145.69;72.51;52181.00;5527662;26;20226;-77
2024/04/12 04:48:40;;;;;;;17.17;9.00;;;;;;;-145.69;72.49;52151.28;5490639;26;20295;-77
2024/04/12 04:51:08;;;;;;;18.23;8.93;;;;;;;-145.69;72.59;52210.72;5490322;26;20226;-76
2024/04/12 04:53:34;;;;;;;23.70;10.23;;;;;;;-145.69;72.96;52167.13;5490287;26;20222;-76
2024/04/12 04:56:02;;;;;;;23.40;9.40;;;;;;;-145.69;72.61;52173.09;5521949;26;20256;-76
2024/04/12 04:58:34;;;;;;;20.90;9.73;;;;;;;-145.69;72.62;52188.91;5527633;26;20320;-76
2024/04/12 05:01:04;;;;;;;23.67;10.00;;;;;;;-145.69;72.52;52163.19;5527474;26;20306;-75
2024/04/12 05:03:30;;;;;;;21.70;9.73;;;;;;;-145.69;72.13;52192.88;5527426;26;20704;-78
2024/04/12 05:06:05;;;;;;;19.37;9.77;;;;;;;-145.69;71.94;52153.28;5527452;26;20225;-78
2024/04/12 05:08:35;;;;;;;22.87;9.33;;;;;;;-145.69;72.26;52155.25;5527469;26;20225;-78
2024/04/12 05:11:05;;;;;;;22.10;9.57;;;;;;;-145.69;72.19;52163.19;5527322;26;20284;-75
2024/04/12 05:13:37;;;;;;;20.37;9.63;;;;;;;-145.69;72.24;52157.25;5527507;26;20225;-78
2024/04/12 05:16:10;;;;;;;23.40;9.80;;;;;;;-145.69;72.28;52167.13;5526889;26;20221;-77
2024/04/12 05:18:36;;;;;;;23.50;9.80;;;;;;;-145.69;72.03;52145.34;5527813;26;20256;-78
2024/04/12 05:21:05;;;;;;;26.53;10.20;;;;;;;-145.69;71.58;52157.25;5527469;26;20226;-77
2024/04/12 05:23:30;;;;;;;22.13;9.73;;;;;;;-145.69;71.62;52151.28;5527212;26;20252;-77
2024/04/12 05:25:59;;;;;;;20.80;9.17;;;;;;;-145.69;71.15;52155.25;5526923;26;20237;-76
2024/04/12 05:28:27;;;;;;;23.57;10.13;;;;;;;-145.69;70.60;52147.34;5527054;26;20225;-77
2024/04/12 05:30:57;;;;;;;18.13;9.40;;;;;;;-145.69;70.21;52159.22;5526056;26;20233;-79
2024/04/12 05:33:24;;;;;;;24.77;9.47;;;;;;;-145.69;70.54;52143.38;5527391;26;20230;-77
2024/04/12 05:35:53;;;;;;;24.83;10.50;;;;;;;-145.69;70.50;52123.56;5527011;26;20267;-76
2024/04/12 05:38:21;;;;;;;19.13;9.20;;;;;;;-145.69;70.46;52145.34;5527060;26;20759;-78
2024/04/12 05:40:52;;;;;;;21.80;9.77;;;;;;;-145.69;69.78;52139.41;5526964;26;20221;-78
2024/04/12 05:43:18;;;;;;;21.93;9.60;;;;;;;-145.69;69.46;52157.25;5526894;26;20218;-77
2024/04/12 05:45:47;;;;;;;19.73;8.77;;;;;;;-145.69;69.79;52143.38;5526656;26;20708;-77
2024/04/12 05:48:16;;;;;;;21.40;9.90;;;;;;;-145.69;69.58;52153.28;5527094;26;20260;-78
2024/04/12 05:50:46;;;;;;;17.90;8.87;;;;;;;-145.69;69.61;52147.34;5527136;26;20785;-78
2024/04/12 05:53:12;;;;;;;21.20;8.90;;;;;;;-145.69;69.19;52173.09;5526820;26;20217;-77
2024/04/12 05:55:44;;;;;;;17.17;9.70;;;;;;;-145.69;68.84;52157.25;5526915;26;20341;-77
2024/04/12 05:58:10;;;;;;;22.73;9.50;;;;;;;-145.69;68.69;52139.41;5526862;26;20222;-76
2024/04/12 06:00:41;;;;;;;16.50;8.27;;;;;;;-145.69;68.80;52143.38;5526782;26;20709;-77
2024/04/12 06:03:07;;;;;;;14.97;7.63;;;;;;;-145.69;68.14;52181.00;5527028;26;20320;-77
2024/04/12 06:05:39;;;;;;;16.10;7.70;;;;;;;-145.69;68.10;52169.13;5526211;26;20225;-76
2024/04/12 06:08:05;;;;;;;14.90;7.83;;;;;;;-145.69;68.32;52155.25;5526571;26;20230;-76
2024/04/12 06:10:34;;;;;;;15.53;7.43;;;;;;;-145.69;68.41;52143.38;5526800;26;20245;-77
2024/04/12 06:13:06;;;;;;;13.07;7.80;;;;;;;-145.69;68.53;52123.56;5526093;26;20611;-76
2024/04/12 06:15:36;;;;;;;17.77;7.43;;;;;;;-145.69;68.67;52127.53;5526676;26;20225;-76
2024/04/12 06:18:02;;;;;;;18.20;8.30;;;;;;;-145.69;68.82;52149.31;5526254;26;21452;-77
2024/04/12 06:20:33;;;;;;;15.87;7.80;;;;;;;-145.69;68.44;52151.28;5526709;26;20659;-76
2024/04/12 06:23:06;;;;;;;14.20;7.67;;;;;;;-145.69;68.10;52165.16;5525870;26;20225;-76
2024/04/12 06:25:37;;;;;;;18.50;7.50;;;;;;;-145.69;68.52;52157.25;5526227;26;20698;-76
2024/04/12 06:28:09;;;;;;;14.27;7.83;;;;;;;-145.69;68.38;52155.25;5526421;26;20708;-78
2024/04/12 06:30:37;;;;;;;14.87;7.40;;;;;;;-145.69;68.15;52143.38;5526374;26;20602;-77
2024/04/12 06:33:06;;;;;;;26.40;8.50;;;;;;;-145.69;68.54;52163.19;5526116;26;20245;-76
2024/04/12 06:35:34;;;;;;;19.97;7.60;;;;;;;-145.69;68.32;52153.28;5526353;26;20225;-76
2024/04/12 06:38:08;;;;;;;17.20;8.90;;;;;;;-145.69;68.77;52109.72;5523877;26;20222;-77
2024/04/12 06:40:37;;;;;;;13.13;7.53;;;;;;;-145.69;68.42;52149.31;5525770;26;20263;-77
2024/04/12 06:43:05;;;;;;;12.13;6.43;;;;;;;-145.69;68.16;52171.09;5525332;26;20324;-76
2024/04/12 06:45:41;;;;;;;15.40;6.90;;;;;;;-145.69;68.15;52115.66;5526052;26;20225;-76
2024/04/12 06:48:07;;;;;;;11.50;6.50;;;;;;;-145.69;68.41;52127.53;5526170;26;20264;-77
2024/04/12 06:50:36;;;;;;;14.90;7.57;;;;;;;-145.69;68.07;52167.13;5526356;26;20229;-76
2024/04/12 06:53:08;;;;;;;12.87;7.97;;;;;;;-145.69;67.03;52119.63;5525215;26;20277;-77
2024/04/12 06:55:45;;;;;;;15.37;8.97;;;;;;;-145.69;67.05;52127.53;5522352;26;20365;-77
2024/04/12 06:58:11;;;;;;;17.07;9.07;;;;;;;-145.69;66.51;52139.41;5492923;26;20397;-77
2024/04/12 07:00:40;;;;;;;14.80;8.40;;;;;;;-145.69;66.02;52121.59;5489299;26;20234;-77
2024/04/12 07:03:08;;;;;;;9.73;5.73;;;;;;;-145.69;66.54;52095.84;5488613;26;20222;-76
2024/04/12 07:05:36;;;;;;;10.50;6.37;;;;;;;-145.69;65.98;52163.19;5489071;26;20278;-77
2024/04/12 07:08:06;;;;;;;11.73;7.17;;;;;;;-145.69;65.43;52137.44;5524995;26;20256;-77
2024/04/12 07:10:35;;;;;;;13.67;6.63;;;;;;;-145.69;64.69;52123.56;5525099;26;20298;-77
2024/04/12 07:13:01;;;;;;;12.83;7.57;;;;;;;-145.69;64.31;52101.78;5525730;26;20221;-77
2024/04/12 07:15:29;;;;;;;13.70;6.20;;;;;;;-145.69;63.37;52131.50;5525715;26;20261;-77
2024/04/12 07:17:58;;;;;;;21.17;6.40;;;;;;;-145.69;63.04;52107.72;5525557;26;20217;-76
2024/04/12 07:20:27;;;;;;;11.07;5.60;;;;;;;-145.69;63.13;52107.72;5524772;26;20587;-77
2024/04/12 07:22:52;;;;;;;12.30;6.33;;;;;;;-145.69;62.36;52103.78;5525551;26;20332;-77
2024/04/12 07:25:24;;;;;;;9.90;5.00;;;;;;;-145.69;61.73;52103.78;5525934;26;20230;-77
2024/04/12 07:27:53;;;;;;;14.00;6.00;;;;;;;-145.69;61.16;52111.69;5525078;26;20260;-77
2024/04/12 07:30:23;;;;;;;7.73;4.83;;;;;;;-145.69;60.67;52109.72;5525331;26;20293;-77
2024/04/12 07:32:50;;;;;;;12.60;5.53;;;;;;;-145.69;59.69;52097.84;5525159;26;20264;-77
2024/04/12 07:35:26;;;;;;;10.90;6.00;;;;;;;-145.69;60.89;52083.97;5525466;26;20221;-76
2024/04/12 07:37:54;;;;;;;16.87;5.77;;;;;;;-145.69;60.36;52093.88;5525340;26;20758;-77
2024/04/12 07:40:31;;;;;;;13.17;6.57;;;;;;;-145.69;59.74;52060.22;5525005;26;20281;-78
2024/04/12 07:42:58;;;;;;;11.33;6.23;;;;;;;-145.69;59.55;52085.94;5525234;26;20281;-79
2024/04/12 07:45:29;;;;;;;11.38;6.35;;;;;;;-145.69;58.65;52080.00;5525365;26;20701;-78
2024/04/12 07:48:11;;;;;;;12.05;7.20;;;;;;;-145.69;57.65;52095.84;5524900;26;20221;-77
2024/04/12 07:50:41;;;;;;;11.98;6.97;;;;;;;-145.69;57.42;52095.84;5525013;26;20225;-78
2024/04/12 07:53:21;;;;;;;12.40;6.65;;;;;;;-145.69;56.77;52072.09;5525101;26;20818;-77
2024/04/12 07:55:58;;;;;;;13.05;6.15;;;;;;;-145.69;55.10;52083.97;5528860;26;20329;-78
2024/04/12 07:58:27;;;;;;;13.13;6.15;;;;;;;-145.69;54.95;52083.97;5527765;26;20259;-77
2024/04/12 08:01:09;;;;;;;12.27;6.03;;;;;;;-145.69;54.44;52046.34;5528640;26;20264;-77
2024/04/12 08:03:36;;;;;;;9.80;6.32;;;;;;;-145.69;53.68;52083.97;5528318;26;20229;-77
2024/04/12 08:06:05;;;;;;;12.15;5.93;;;;;;;-145.69;53.42;52080.00;5528766;26;20321;-76
2024/04/12 08:08:31;;;;;;;9.18;5.60;;;;;;;-145.69;52.66;52083.97;5528714;26;20218;-77
2024/04/12 08:11:11;;;;;;;12.13;6.05;;;;;;;-145.69;51.16;52068.13;5528690;26;20233;-78
2024/04/12 08:13:43;;;;;;;8.75;5.50;;;;;;;-145.69;51.54;52072.09;5528283;26;20548;-78
2024/04/12 08:16:14;;;;;;;13.15;5.93;;;;;;;-145.69;52.39;52087.94;5528160;26;20238;-77
2024/04/12 08:18:43;;;;;;;8.85;5.53;;;;;;;-145.69;50.93;52058.22;5528222;26;20229;-77
2024/04/12 08:21:12;;;;;;;16.40;6.20;;;;;;;-145.69;50.69;52070.09;5526904;25;20264;-77
2024/04/12 08:23:43;;;;;;;11.18;4.93;;;;;;;-145.69;51.30;52044.38;5529206;25;20237;-77
2024/04/12 08:26:16;;;;;;;11.43;5.53;;;;;;;-145.69;51.18;52076.03;5528226;26;20663;-77
2024/04/12 08:28:43;;;;;;;8.57;4.82;;;;;;;-145.69;50.09;52056.25;5528091;26;20221;-76
2024/04/12 08:31:12;;;;;;;8.75;5.07;;;;;;;-145.69;50.62;52052.28;5527787;26;20225;-77
2024/04/12 08:33:40;;;;;;;11.02;5.03;;;;;;;-145.69;48.72;52074.06;5527160;26;20229;-76
2024/04/12 08:36:13;;;;;;;12.40;4.82;;;;;;;-145.69;49.25;52068.13;5527831;26;20233;-77
2024/04/12 08:38:53;;;;;;;8.88;4.70;;;;;;;-145.69;48.94;52072.09;5528076;26;20550;-77
2024/04/12 08:41:26;;;;;;;9.63;4.60;;;;;;;-145.69;49.03;52062.19;5527913;26;20225;-77
2024/04/12 08:43:54;;;;;;;8.70;5.10;;;;;;;-145.69;47.93;52046.34;5527949;26;20308;-77
2024/04/12 08:46:27;;;;;;;8.70;5.40;;;;;;;-145.69;47.65;52068.13;5527262;26;20221;-77
2024/04/12 08:48:55;;;;;;;13.00;5.93;;;;;;;-145.69;47.86;52006.75;5527856;26;20746;-79
2024/04/12 08:51:27;;;;;;;9.52;6.20;;;;;;;-145.69;47.82;52024.56;5526622;26;20256;-77
2024/04/12 08:53:55;;;;;;;16.10;6.93;;;;;;;-145.69;48.02;52040.41;5527644;26;20281;-76
2024/04/12 08:56:29;;;;;;;13.85;6.85;;;;;;;-145.69;46.89;52030.50;5524414;25;20282;-75
2024/04/12 08:58:54;;;;;;;13.57;6.50;;;;;;;-145.69;46.26;52020.59;5492482;26;20257;-77
2024/04/12 09:01:27;;;;;;;15.10;6.45;;;;;;;-145.69;46.18;52042.38;5499922;26;20230;-77
2024/04/12 09:03:58;;;;;;;9.70;5.70;;;;;;;-145.69;47.20;52008.72;5527857;26;20296;-77
2024/04/12 09:06:26;;;;;;;8.65;4.68;;;;;;;-145.69;47.22;52048.31;5525757;26;20229;-77
2024/04/12 09:08:53;;;;;;;11.52;4.55;;;;;;;-145.69;46.51;52032.47;5526881;26;20689;-77
2024/04/12 09:11:25;;;;;;;7.57;4.38;;;;;;;-145.69;46.10;52040.41;5527582;26;20280;-77
2024/04/12 09:13:54;;;;;;;7.78;4.03;;;;;;;-145.69;47.62;52014.66;5527605;26;20264;-77
2024/04/12 09:16:24;;;;;;;12.68;4.38;;;;;;;-145.69;46.38;52016.66;5527289;26;20260;-78
2024/04/12 09:18:51;;;;;;;8.30;3.83;;;;;;;-145.69;45.89;52012.69;5527035;26;20708;-77
2024/04/12 09:21:35;;;;;;;7.05;4.75;;;;;;;-145.69;46.59;52014.66;5527753;26;20298;-77
2024/04/12 09:24:09;;;;;;;8.05;3.95;;;;;;;-145.69;47.71;52040.41;5526829;26;20276;-79
2024/04/12 09:26:55;;;;;;;4.85;3.75;;;;;;;-145.69;46.77;52040.41;5527279;26;20688;-78
2024/04/12 09:29:27;;;;;;;9.18;4.50;;;;;;;-145.69;46.10;52024.56;5526650;26;20228;-77
2024/04/12 09:34:40;;;;;;;9.45;4.22;;;;;;;-145.69;45.69;52020.59;5525655;26;20221;-77
2024/04/12 09:40:04;;;;;;;10.32;4.53;;;;;;;-145.69;43.43;52006.75;5517377;26;20237;-78
2024/04/12 09:42:44;;;;;;;8.40;4.22;;;;;;;-145.69;44.36;52008.72;5526557;26;20259;-77
2024/04/12 09:45:19;;;;;;;7.95;4.15;;;;;;;-145.69;43.84;52004.75;5527025;26;20265;-77
2024/04/12 10:38:09;;;;;;;11.10;4.43;;;;;;;-145.69;38.98;51981.00;5528210;26;20310;-80
2024/04/12 10:40:39;;;;;;;10.70;4.20;;;;;;;-145.69;38.87;51957.25;5526498;26;20265;-79
2024/04/12 10:43:13;;;;;;;12.50;4.05;;;;;;;-145.69;39.52;51953.28;5526220;26;20366;-80
2024/04/12 10:45:47;;;;;;;8.35;3.97;;;;;;;-145.69;39.63;51943.38;5525385;26;20225;-78
2024/04/12 10:48:18;;;;;;;7.35;3.92;;;;;;;-145.69;40.22;51988.91;5525651;26;20225;-78
2024/04/12 10:50:54;;;;;;;7.10;4.45;;;;;;;-145.69;39.45;51939.41;5526051;26;20658;-78
2024/04/12 10:53:20;;;;;;;12.20;3.95;;;;;;;-145.69;39.83;51994.88;5518110;26;20272;-78
2024/04/12 10:55:48;;;;;;;8.75;3.72;;;;;;;-145.69;39.37;51981.00;5489153;26;20226;-78
2024/04/12 10:58:14;;;;;;;19.33;9.30;;;;;;;-145.69;37.75;51953.28;5489174;26;20222;-78
2024/04/12 11:00:48;;;;;;;11.63;5.28;;;;;;;-145.69;38.15;52000.81;5505711;26;20274;-78
2024/04/12 11:03:17;;;;;;;11.25;3.95;;;;;;;-145.69;37.67;51937.44;5524940;26;20301;-78
2024/04/12 11:05:51;;;;;;;13.32;3.63;;;;;;;-145.69;37.79;51937.44;5524993;26;20759;-79
2024/04/12 11:08:19;;;;;;;10.65;3.90;;;;;;;-145.69;37.71;51917.63;5524659;26;20264;-78
2024/04/12 11:11:15;;;;;;;11.52;3.88;;;;;;;-145.69;37.68;51957.25;5525912;26;20622;-77
2024/04/12 11:13:45;;;;;;;5.05;2.85;;;;;;;-145.69;36.86;51941.41;5525689;26;20280;-78
2024/04/12 11:32:55;;;;;;;7.10;2.83;;;;;;;-145.69;34.49;51880.00;5527889;26;20264;-78
2024/04/12 11:35:29;;;;;;;4.88;2.78;;;;;;;-145.69;34.21;51889.91;5525250;26;20576;-78
2024/04/12 11:38:04;;;;;;;6.30;2.63;;;;;;;-145.69;34.65;51909.72;5524514;26;20233;-77
2024/04/12 11:40:32;;;;;;;4.50;2.90;;;;;;;-145.69;34.47;51905.75;5525490;26;20236;-78
2024/04/12 11:43:00;;;;;;;7.20;2.70;;;;;;;-145.69;34.57;51919.63;5525259;26;20251;-77
2024/04/12 11:45:30;;;;;;;6.93;2.63;;;;;;;-145.69;34.42;51897.84;5525339;26;20233;-78
2024/04/12 11:47:58;;;;;;;8.57;2.83;;;;;;;-145.69;34.98;51907.72;5525508;26;20255;-78
2024/04/12 11:50:27;;;;;;;5.60;2.58;;;;;;;-145.69;34.86;51905.75;5524941;26;20245;-78
2024/04/12 11:53:10;;;;;;;4.90;2.90;;;;;;;-145.69;35.37;51893.88;5525058;26;20263;-77
2024/04/12 11:55:36;;;;;;;6.90;2.95;;;;;;;-145.69;35.06;51949.31;5524485;26;20262;-77
2024/04/12 11:58:05;;;;;;;6.10;2.70;;;;;;;-145.69;36.07;51915.66;5525070;26;20289;-78
2024/04/12 12:00:34;;;;;;;5.00;2.17;;;;;;;-145.69;35.90;51921.59;5525316;26;20221;-78
2024/04/12 12:03:02;;;;;;;7.93;2.65;;;;;;;-145.69;35.21;51941.41;5524583;26;20238;-78
2024/04/12 12:05:28;;;;;;;5.80;2.50;;;;;;;-145.69;35.52;51909.72;5523993;26;20230;-78
2024/04/12 12:07:59;;;;;;;8.18;2.90;;;;;;;-145.69;34.46;51905.75;5524605;26;20225;-78
2024/04/12 12:10:34;;;;;;;5.15;2.05;;;;;;;-145.69;34.77;51935.47;5524788;26;20221;-78
2024/04/12 12:13:03;;;;;;;6.70;2.80;;;;;;;-145.69;34.54;51933.47;5524684;26;20696;-78
2024/04/12 12:15:28;;;;;;;6.47;2.28;;;;;;;-145.69;35.13;51905.75;5524436;26;20225;-78
2024/04/12 12:17:57;;;;;;;8.07;2.65;;;;;;;-145.69;34.84;51917.63;5524778;26;20275;-78
2024/04/12 12:20:32;;;;;;;5.90;2.55;;;;;;;-145.69;34.71;51921.59;5524901;26;20221;-78
2024/04/12 12:23:01;;;;;;;8.80;2.75;;;;;;;-145.69;35.67;51913.69;5523787;26;20225;-77
2024/04/12 12:25:29;;;;;;;8.13;2.35;;;;;;;-145.69;35.91;51941.41;5523626;26;20369;-77
2024/04/12 12:27:57;;;;;;;7.60;2.42;;;;;;;-145.69;35.49;51905.75;5524604;26;20225;-77
2024/04/12 12:30:23;;;;;;;8.48;3.13;;;;;;;-145.69;35.90;51878.03;5523995;26;20288;-78
2024/04/12 12:32:52;;;;;;;6.00;2.83;;;;;;;-145.69;35.13;51909.72;5521984;26;20321;-79
2024/04/12 12:35:21;;;;;;;7.47;2.72;;;;;;;-145.69;35.15;51935.47;5524183;26;20222;-79
2024/04/12 12:37:50;;;;;;;7.00;2.55;;;;;;;-145.69;36.60;51915.66;5523829;26;20318;-78